sensor_id;sensor_type;location;lat;lon;timestamp;pressure;altitude;pressure_sealevel;temperature
15062;BMP180;7630;50.306;8.566;2023-11-19T00:01:49;97486.00;;;9.90
15062;BMP180;7630;50.306;8.566;2023-11-19T00:05:51;97478.00;;;10.10
15062;BMP180;7630;50.306;8.566;2023-11-19T00:09:52;97466.00;;;11.00
15062;BMP180;7630;50.306;8.566;2023-11-19T00:13:53;97478.00;;;9.60
15062;BMP180;7630;50.306;8.566;2023-11-19T00:17:54;97466.00;;;10.30
15062;BMP180;7630;50.306;8.566;2023-11-19T00:21:56;97475.00;;;10.90
15062;BMP180;7630;50.306;8.566;2023-11-19T00:25:58;97481.00;;;10.00
15062;BMP180;7630;50.306;8.566;2023-11-19T00:29:59;97472.00;;;10.10
15062;BMP180;7630;50.306;8.566;2023-11-19T00:34:00;97468.00;;;10.70
15062;BMP180;7630;50.306;8.566;2023-11-19T00:38:03;97451.00;;;10.70
15062;BMP180;7630;50.306;8.566;2023-11-19T00:42:05;97459.00;;;10.80
15062;BMP180;7630;50.306;8.566;2023-11-19T00:46:07;97471.00;;;11.20
15062;BMP180;7630;50.306;8.566;2023-11-19T00:50:09;97462.00;;;10.80
15062;BMP180;7630;50.306;8.566;2023-11-19T00:54:10;97452.00;;;10.80
15062;BMP180;7630;50.306;8.566;2023-11-19T00:58:11;97453.00;;;11.10
15062;BMP180;7630;50.306;8.566;2023-11-19T01:02:12;97432.00;;;10.90
15062;BMP180;7630;50.306;8.566;2023-11-19T01:06:15;97424.00;;;11.70
15062;BMP180;7630;50.306;8.566;2023-11-19T01:10:16;97425.00;;;11.90
15062;BMP180;7630;50.306;8.566;2023-11-19T01:14:19;97420.00;;;11.30
15062;BMP180;7630;50.306;8.566;2023-11-19T01:18:20;97411.00;;;10.30
15062;BMP180;7630;50.306;8.566;2023-11-19T01:22:21;97407.00;;;10.90
15062;BMP180;7630;50.306;8.566;2023-11-19T01:26:24;97405.00;;;10.70
15062;BMP180;7630;50.306;8.566;2023-11-19T01:30:25;97414.00;;;11.30
15062;BMP180;7630;50.306;8.566;2023-11-19T01:34:27;97412.00;;;10.50
15062;BMP180;7630;50.306;8.566;2023-11-19T01:38:28;97428.00;;;10.80
15062;BMP180;7630;50.306;8.566;2023-11-19T01:42:29;97409.00;;;11.10
15062;BMP180;7630;50.306;8.566;2023-11-19T01:46:30;97406.00;;;10.40
15062;BMP180;7630;50.306;8.566;2023-11-19T01:50:33;97391.00;;;10.50
15062;BMP180;7630;50.306;8.566;2023-11-19T01:54:35;97385.00;;;10.60
15062;BMP180;7630;50.306;8.566;2023-11-19T01:58:36;97380.00;;;10.50
15062;BMP180;7630;50.306;8.566;2023-11-19T02:02:38;97380.00;;;10.40
15062;BMP180;7630;50.306;8.566;2023-11-19T02:06:41;97363.00;;;10.80
15062;BMP180;7630;50.306;8.566;2023-11-19T02:10:43;97365.00;;;10.70
15062;BMP180;7630;50.306;8.566;2023-11-19T02:14:44;97379.00;;;11.10
15062;BMP180;7630;50.306;8.566;2023-11-19T02:18:46;97383.00;;;10.70
15062;BMP180;7630;50.306;8.566;2023-11-19T02:22:47;97364.00;;;11.70
15062;BMP180;7630;50.306;8.566;2023-11-19T02:26:52;97365.00;;;11.20
15062;BMP180;7630;50.306;8.566;2023-11-19T02:30:53;97353.00;;;11.30
15062;BMP180;7630;50.306;8.566;2023-11-19T02:34:55;97351.00;;;10.90
15062;BMP180;7630;50.306;8.566;2023-11-19T02:38:58;97344.00;;;11.30
15062;BMP180;7630;50.306;8.566;2023-11-19T02:42:59;97328.00;;;11.20
15062;BMP180;7630;50.306;8.566;2023-11-19T02:47:00;97317.00;;;11.10
15062;BMP180;7630;50.306;8.566;2023-11-19T02:51:04;97335.00;;;11.70
15062;BMP180;7630;50.306;8.566;2023-11-19T02:55:06;97348.00;;;11.90
15062;BMP180;7630;50.306;8.566;2023-11-19T02:59:11;97345.00;;;10.30
15062;BMP180;7630;50.306;8.566;2023-11-19T03:03:14;97334.00;;;11.30
15062;BMP180;7630;50.306;8.566;2023-11-19T03:07:22;97316.00;;;11.70
15062;BMP180;7630;50.306;8.566;2023-11-19T03:11:24;97333.00;;;12.00
15062;BMP180;7630;50.306;8.566;2023-11-19T03:15:25;97323.00;;;11.50
15062;BMP180;7630;50.306;8.566;2023-11-19T03:19:26;97321.00;;;12.30
15062;BMP180;7630;50.306;8.566;2023-11-19T03:23:28;97320.00;;;12.30
15062;BMP180;7630;50.306;8.566;2023-11-19T03:27:29;97323.00;;;11.70
15062;BMP180;7630;50.306;8.566;2023-11-19T03:31:30;97323.00;;;11.20
15062;BMP180;7630;50.306;8.566;2023-11-19T03:35:31;97302.00;;;11.80
15062;BMP180;7630;50.306;8.566;2023-11-19T03:39:33;97298.00;;;11.50
15062;BMP180;7630;50.306;8.566;2023-11-19T03:43:35;97318.00;;;11.80
15062;BMP180;7630;50.306;8.566;2023-11-19T03:47:36;97313.00;;;11.80
15062;BMP180;7630;50.306;8.566;2023-11-19T03:51:37;97311.00;;;11.90
15062;BMP180;7630;50.306;8.566;2023-11-19T03:55:38;97315.00;;;12.20
15062;BMP180;7630;50.306;8.566;2023-11-19T03:59:39;97305.00;;;12.00
15062;BMP180;7630;50.306;8.566;2023-11-19T04:03:40;97300.00;;;11.90
15062;BMP180;7630;50.306;8.566;2023-11-19T04:07:43;97293.00;;;12.20
15062;BMP180;7630;50.306;8.566;2023-11-19T04:11:44;97293.00;;;12.30
15062;BMP180;7630;50.306;8.566;2023-11-19T04:15:49;97297.00;;;12.10
15062;BMP180;7630;50.306;8.566;2023-11-19T04:19:51;97296.00;;;12.20
15062;BMP180;7630;50.306;8.566;2023-11-19T04:23:52;97288.00;;;12.10
15062;BMP180;7630;50.306;8.566;2023-11-19T04:27:53;97297.00;;;12.40
15062;BMP180;7630;50.306;8.566;2023-11-19T04:31:54;97303.00;;;12.80
15062;BMP180;7630;50.306;8.566;2023-11-19T04:35:55;97279.00;;;12.30
15062;BMP180;7630;50.306;8.566;2023-11-19T04:39:56;97273.00;;;12.20
15062;BMP180;7630;50.306;8.566;2023-11-19T04:43:58;97268.00;;;12.30
15062;BMP180;7630;50.306;8.566;2023-11-19T04:47:59;97245.00;;;12.30
15062;BMP180;7630;50.306;8.566;2023-11-19T04:52:00;97289.00;;;12.20
15062;BMP180;7630;50.306;8.566;2023-11-19T04:56:09;97275.00;;;12.30
15062;BMP180;7630;50.306;8.566;2023-11-19T05:00:11;97284.00;;;12.40
15062;BMP180;7630;50.306;8.566;2023-11-19T05:04:15;97275.00;;;12.50
15062;BMP180;7630;50.306;8.566;2023-11-19T05:08:16;97175.00;;;12.20
15062;BMP180;7630;50.306;8.566;2023-11-19T05:12:17;97286.00;;;12.70
15062;BMP180;7630;50.306;8.566;2023-11-19T05:16:18;97282.00;;;12.90
15062;BMP180;7630;50.306;8.566;2023-11-19T05:20:19;97275.00;;;12.70
15062;BMP180;7630;50.306;8.566;2023-11-19T05:24:20;97287.00;;;12.10
15062;BMP180;7630;50.306;8.566;2023-11-19T05:28:22;97301.00;;;12.30
15062;BMP180;7630;50.306;8.566;2023-11-19T05:32:25;97293.00;;;12.20
15062;BMP180;7630;50.306;8.566;2023-11-19T05:36:26;97281.00;;;12.60
15062;BMP180;7630;50.306;8.566;2023-11-19T05:40:28;97267.00;;;12.40
15062;BMP180;7630;50.306;8.566;2023-11-19T05:44:29;97270.00;;;12.40
15062;BMP180;7630;50.306;8.566;2023-11-19T05:48:31;97272.00;;;12.20
15062;BMP180;7630;50.306;8.566;2023-11-19T05:52:32;97281.00;;;11.90
15062;BMP180;7630;50.306;8.566;2023-11-19T05:56:34;97274.00;;;12.50
15062;BMP180;7630;50.306;8.566;2023-11-19T06:00:35;97283.00;;;12.10
15062;BMP180;7630;50.306;8.566;2023-11-19T06:04:37;97286.00;;;12.30
15062;BMP180;7630;50.306;8.566;2023-11-19T06:08:38;97294.00;;;12.20
15062;BMP180;7630;50.306;8.566;2023-11-19T06:12:39;97304.00;;;12.30
15062;BMP180;7630;50.306;8.566;2023-11-19T06:16:41;97305.00;;;12.90
15062;BMP180;7630;50.306;8.566;2023-11-19T06:20:43;97311.00;;;12.40
15062;BMP180;7630;50.306;8.566;2023-11-19T06:24:44;97313.00;;;12.40
15062;BMP180;7630;50.306;8.566;2023-11-19T06:28:45;97310.00;;;12.20
15062;BMP180;7630;50.306;8.566;2023-11-19T06:32:47;97298.00;;;13.00
15062;BMP180;7630;50.306;8.566;2023-11-19T06:36:48;97290.00;;;12.40
15062;BMP180;7630;50.306;8.566;2023-11-19T06:40:49;97305.00;;;12.70
15062;BMP180;7630;50.306;8.566;2023-11-19T06:44:52;97317.00;;;12.80
15062;BMP180;7630;50.306;8.566;2023-11-19T06:48:53;97319.00;;;12.50
15062;BMP180;7630;50.306;8.566;2023-11-19T06:52:54;97320.00;;;12.90
15062;BMP180;7630;50.306;8.566;2023-11-19T06:56:55;97324.00;;;12.40
15062;BMP180;7630;50.306;8.566;2023-11-19T07:00:58;97324.00;;;13.20
15062;BMP180;7630;50.306;8.566;2023-11-19T07:04:59;97319.00;;;12.50
15062;BMP180;7630;50.306;8.566;2023-11-19T07:09:02;97308.00;;;12.70
15062;BMP180;7630;50.306;8.566;2023-11-19T07:13:08;97319.00;;;13.10
15062;BMP180;7630;50.306;8.566;2023-11-19T07:17:09;97322.00;;;13.10
15062;BMP180;7630;50.306;8.566;2023-11-19T07:21:11;97326.00;;;13.00
15062;BMP180;7630;50.306;8.566;2023-11-19T07:25:15;97320.00;;;12.40
15062;BMP180;7630;50.306;8.566;2023-11-19T07:29:16;97320.00;;;12.80
15062;BMP180;7630;50.306;8.566;2023-11-19T07:33:19;97317.00;;;12.50
15062;BMP180;7630;50.306;8.566;2023-11-19T07:37:20;97324.00;;;12.50
15062;BMP180;7630;50.306;8.566;2023-11-19T07:41:22;97325.00;;;12.40
15062;BMP180;7630;50.306;8.566;2023-11-19T07:45:23;97319.00;;;12.20
15062;BMP180;7630;50.306;8.566;2023-11-19T07:49:24;97322.00;;;11.80
15062;BMP180;7630;50.306;8.566;2023-11-19T07:53:25;97335.00;;;12.20
15062;BMP180;7630;50.306;8.566;2023-11-19T07:57:26;97354.00;;;12.00
15062;BMP180;7630;50.306;8.566;2023-11-19T08:01:29;97353.00;;;12.20
15062;BMP180;7630;50.306;8.566;2023-11-19T08:05:31;97357.00;;;12.60
15062;BMP180;7630;50.306;8.566;2023-11-19T08:09:32;97358.00;;;12.40
15062;BMP180;7630;50.306;8.566;2023-11-19T08:13:33;97354.00;;;12.50
15062;BMP180;7630;50.306;8.566;2023-11-19T08:17:34;97364.00;;;12.40
15062;BMP180;7630;50.306;8.566;2023-11-19T08:21:35;97371.00;;;12.40
15062;BMP180;7630;50.306;8.566;2023-11-19T08:25:36;97369.00;;;12.60
15062;BMP180;7630;50.306;8.566;2023-11-19T08:29:37;97361.00;;;13.60
15062;BMP180;7630;50.306;8.566;2023-11-19T08:33:38;97362.00;;;12.90
15062;BMP180;7630;50.306;8.566;2023-11-19T08:37:40;97379.00;;;13.50
15062;BMP180;7630;50.306;8.566;2023-11-19T08:41:41;97371.00;;;13.60
15062;BMP180;7630;50.306;8.566;2023-11-19T08:45:42;97358.00;;;12.70
15062;BMP180;7630;50.306;8.566;2023-11-19T08:49:44;97358.00;;;12.70
15062;BMP180;7630;50.306;8.566;2023-11-19T08:53:46;97369.00;;;12.80
15062;BMP180;7630;50.306;8.566;2023-11-19T08:57:47;97362.00;;;12.50
15062;BMP180;7630;50.306;8.566;2023-11-19T09:01:48;97360.00;;;12.80
15062;BMP180;7630;50.306;8.566;2023-11-19T09:05:49;97353.00;;;12.80
15062;BMP180;7630;50.306;8.566;2023-11-19T09:09:50;97355.00;;;12.60
15062;BMP180;7630;50.306;8.566;2023-11-19T09:13:51;97353.00;;;12.80
15062;BMP180;7630;50.306;8.566;2023-11-19T09:17:53;97366.00;;;13.00
15062;BMP180;7630;50.306;8.566;2023-11-19T09:21:54;97365.00;;;12.40
15062;BMP180;7630;50.306;8.566;2023-11-19T09:25:55;97374.00;;;12.70
15062;BMP180;7630;50.306;8.566;2023-11-19T09:29:57;97366.00;;;12.70
15062;BMP180;7630;50.306;8.566;2023-11-19T09:33:59;97366.00;;;12.60
15062;BMP180;7630;50.306;8.566;2023-11-19T09:38:00;97358.00;;;13.20
15062;BMP180;7630;50.306;8.566;2023-11-19T09:42:03;97353.00;;;12.60
15062;BMP180;7630;50.306;8.566;2023-11-19T09:46:06;97363.00;;;13.20
15062;BMP180;7630;50.306;8.566;2023-11-19T09:50:09;97370.00;;;12.70
15062;BMP180;7630;50.306;8.566;2023-11-19T09:54:11;97382.00;;;13.40
15062;BMP180;7630;50.306;8.566;2023-11-19T09:58:14;97376.00;;;13.30
15062;BMP180;7630;50.306;8.566;2023-11-19T10:02:16;97364.00;;;13.10
15062;BMP180;7630;50.306;8.566;2023-11-19T10:06:18;97374.00;;;13.10
15062;BMP180;7630;50.306;8.566;2023-11-19T10:10:20;97370.00;;;12.90
15062;BMP180;7630;50.306;8.566;2023-11-19T10:14:23;97372.00;;;13.30
15062;BMP180;7630;50.306;8.566;2023-11-19T10:18:27;97370.00;;;12.80
15062;BMP180;7630;50.306;8.566;2023-11-19T10:22:29;97383.00;;;13.40
15062;BMP180;7630;50.306;8.566;2023-11-19T10:26:30;97391.00;;;13.40
15062;BMP180;7630;50.306;8.566;2023-11-19T10:30:31;97380.00;;;13.40
15062;BMP180;7630;50.306;8.566;2023-11-19T10:34:34;97381.00;;;13.30
15062;BMP180;7630;50.306;8.566;2023-11-19T10:38:38;97378.00;;;13.40
15062;BMP180;7630;50.306;8.566;2023-11-19T10:42:41;97369.00;;;13.60
15062;BMP180;7630;50.306;8.566;2023-11-19T10:46:42;97381.00;;;13.70
15062;BMP180;7630;50.306;8.566;2023-11-19T10:50:46;97375.00;;;13.70
15062;BMP180;7630;50.306;8.566;2023-11-19T10:54:50;97380.00;;;14.00
15062;BMP180;7630;50.306;8.566;2023-11-19T10:58:53;97381.00;;;13.60
15062;BMP180;7630;50.306;8.566;2023-11-19T11:03:01;97371.00;;;13.90
15062;BMP180;7630;50.306;8.566;2023-11-19T11:07:03;97382.00;;;13.90
15062;BMP180;7630;50.306;8.566;2023-11-19T11:11:06;97366.00;;;13.20
15062;BMP180;7630;50.306;8.566;2023-11-19T11:15:10;97380.00;;;14.60
15062;BMP180;7630;50.306;8.566;2023-11-19T11:19:13;97364.00;;;14.50
15062;BMP180;7630;50.306;8.566;2023-11-19T11:32:02;97347.00;;;14.80
15062;BMP180;7630;50.306;8.566;2023-11-19T11:36:20;97345.00;;;14.10
15062;BMP180;7630;50.306;8.566;2023-11-19T11:40:22;97331.00;;;14.00
15062;BMP180;7630;50.306;8.566;2023-11-19T11:48:48;97343.00;;;14.40
15062;BMP180;7630;50.306;8.566;2023-11-19T11:57:10;97343.00;;;14.00
15062;BMP180;7630;50.306;8.566;2023-11-19T12:01:15;97335.00;;;13.80
15062;BMP180;7630;50.306;8.566;2023-11-19T12:05:18;97336.00;;;13.80
15062;BMP180;7630;50.306;8.566;2023-11-19T12:09:19;97335.00;;;13.80
15062;BMP180;7630;50.306;8.566;2023-11-19T12:13:21;97342.00;;;14.30
15062;BMP180;7630;50.306;8.566;2023-11-19T12:21:37;97325.00;;;14.00
15062;BMP180;7630;50.306;8.566;2023-11-19T12:25:39;97318.00;;;14.40
15062;BMP180;7630;50.306;8.566;2023-11-19T12:29:43;97321.00;;;14.60
15062;BMP180;7630;50.306;8.566;2023-11-19T12:33:45;97319.00;;;14.50
15062;BMP180;7630;50.306;8.566;2023-11-19T12:37:48;97305.00;;;14.50
15062;BMP180;7630;50.306;8.566;2023-11-19T12:41:53;97184.00;;;14.90
15062;BMP180;7630;50.306;8.566;2023-11-19T12:45:55;97297.00;;;14.60
15062;BMP180;7630;50.306;8.566;2023-11-19T12:49:56;97280.00;;;14.20
15062;BMP180;7630;50.306;8.566;2023-11-19T12:53:58;97289.00;;;14.90
15062;BMP180;7630;50.306;8.566;2023-11-19T12:57:59;97274.00;;;15.30
15062;BMP180;7630;50.306;8.566;2023-11-19T13:02:01;97155.00;;;14.80
15062;BMP180;7630;50.306;8.566;2023-11-19T13:06:05;97278.00;;;14.40
15062;BMP180;7630;50.306;8.566;2023-11-19T13:10:08;97282.00;;;14.80
15062;BMP180;7630;50.306;8.566;2023-11-19T13:14:10;97269.00;;;15.00
15062;BMP180;7630;50.306;8.566;2023-11-19T13:18:13;97272.00;;;14.40
15062;BMP180;7630;50.306;8.566;2023-11-19T13:22:15;96872.00;;;16.10
15062;BMP180;7630;50.306;8.566;2023-11-19T13:26:17;97269.00;;;16.00
15062;BMP180;7630;50.306;8.566;2023-11-19T13:30:18;97289.00;;;15.00
15062;BMP180;7630;50.306;8.566;2023-11-19T13:34:21;97288.00;;;15.10
15062;BMP180;7630;50.306;8.566;2023-11-19T13:38:22;97301.00;;;15.60
15062;BMP180;7630;50.306;8.566;2023-11-19T13:42:25;97283.00;;;14.30
15062;BMP180;7630;50.306;8.566;2023-11-19T13:46:26;97276.00;;;15.20
15062;BMP180;7630;50.306;8.566;2023-11-19T13:50:27;97277.00;;;15.20
15062;BMP180;7630;50.306;8.566;2023-11-19T13:54:29;97264.00;;;14.90
15062;BMP180;7630;50.306;8.566;2023-11-19T13:58:31;97261.00;;;15.40
15062;BMP180;7630;50.306;8.566;2023-11-19T14:02:33;97265.00;;;15.80
15062;BMP180;7630;50.306;8.566;2023-11-19T14:06:34;97260.00;;;15.10
15062;BMP180;7630;50.306;8.566;2023-11-19T14:10:35;97262.00;;;15.00
15062;BMP180;7630;50.306;8.566;2023-11-19T14:14:37;97261.00;;;13.70
15062;BMP180;7630;50.306;8.566;2023-11-19T14:18:38;97276.00;;;14.20
15062;BMP180;7630;50.306;8.566;2023-11-19T14:22:43;97258.00;;;14.20
15062;BMP180;7630;50.306;8.566;2023-11-19T14:26:46;97244.00;;;13.80
15062;BMP180;7630;50.306;8.566;2023-11-19T14:30:48;97268.00;;;14.50
15062;BMP180;7630;50.306;8.566;2023-11-19T14:34:51;97264.00;;;14.10
15062;BMP180;7630;50.306;8.566;2023-11-19T14:38:53;97262.00;;;14.00
15062;BMP180;7630;50.306;8.566;2023-11-19T14:42:54;97264.00;;;13.40
15062;BMP180;7630;50.306;8.566;2023-11-19T14:46:55;97262.00;;;13.60
15062;BMP180;7630;50.306;8.566;2023-11-19T14:50:57;97266.00;;;13.60
15062;BMP180;7630;50.306;8.566;2023-11-19T14:54:58;97258.00;;;13.70
15062;BMP180;7630;50.306;8.566;2023-11-19T14:58:59;97274.00;;;13.50
15062;BMP180;7630;50.306;8.566;2023-11-19T15:03:00;97289.00;;;13.20
15062;BMP180;7630;50.306;8.566;2023-11-19T15:07:01;97304.00;;;14.00
15062;BMP180;7630;50.306;8.566;2023-11-19T15:11:05;97270.00;;;13.00
15062;BMP180;7630;50.306;8.566;2023-11-19T15:15:08;97300.00;;;13.60
15062;BMP180;7630;50.306;8.566;2023-11-19T15:19:14;97296.00;;;13.50
15062;BMP180;7630;50.306;8.566;2023-11-19T15:23:15;97296.00;;;13.40
15062;BMP180;7630;50.306;8.566;2023-11-19T15:27:16;97285.00;;;13.20
15062;BMP180;7630;50.306;8.566;2023-11-19T15:31:18;97311.00;;;13.10
15062;BMP180;7630;50.306;8.566;2023-11-19T15:35:19;97307.00;;;13.30
15062;BMP180;7630;50.306;8.566;2023-11-19T15:39:20;97312.00;;;14.00
15062;BMP180;7630;50.306;8.566;2023-11-19T15:43:22;97326.00;;;12.90
15062;BMP180;7630;50.306;8.566;2023-11-19T15:47:23;97324.00;;;13.10
15062;BMP180;7630;50.306;8.566;2023-11-19T15:51:24;97313.00;;;12.80
15062;BMP180;7630;50.306;8.566;2023-11-19T15:55:25;97324.00;;;12.80
15062;BMP180;7630;50.306;8.566;2023-11-19T15:59:26;97328.00;;;13.30
15062;BMP180;7630;50.306;8.566;2023-11-19T16:03:27;97320.00;;;13.50
15062;BMP180;7630;50.306;8.566;2023-11-19T16:07:30;97328.00;;;14.10
15062;BMP180;7630;50.306;8.566;2023-11-19T16:11:32;97310.00;;;13.20
15062;BMP180;7630;50.306;8.566;2023-11-19T16:15:37;97325.00;;;13.30
15062;BMP180;7630;50.306;8.566;2023-11-19T16:19:38;97324.00;;;13.40
15062;BMP180;7630;50.306;8.566;2023-11-19T16:23:41;97316.00;;;13.50
15062;BMP180;7630;50.306;8.566;2023-11-19T16:27:42;97324.00;;;12.90
15062;BMP180;7630;50.306;8.566;2023-11-19T16:31:43;97330.00;;;12.90
15062;BMP180;7630;50.306;8.566;2023-11-19T16:35:45;97318.00;;;12.80
15062;BMP180;7630;50.306;8.566;2023-11-19T16:39:46;97335.00;;;13.20
15062;BMP180;7630;50.306;8.566;2023-11-19T16:43:48;97335.00;;;12.50
15062;BMP180;7630;50.306;8.566;2023-11-19T16:47:49;97337.00;;;12.70
15062;BMP180;7630;50.306;8.566;2023-11-19T16:51:51;97342.00;;;13.10
15062;BMP180;7630;50.306;8.566;2023-11-19T16:55:52;97342.00;;;12.80
15062;BMP180;7630;50.306;8.566;2023-11-19T16:59:53;97353.00;;;12.60
15062;BMP180;7630;50.306;8.566;2023-11-19T17:03:57;97351.00;;;12.80
15062;BMP180;7630;50.306;8.566;2023-11-19T17:08:01;97352.00;;;12.80
15062;BMP180;7630;50.306;8.566;2023-11-19T17:12:02;97353.00;;;13.50
15062;BMP180;7630;50.306;8.566;2023-11-19T17:16:04;97364.00;;;13.00
15062;BMP180;7630;50.306;8.566;2023-11-19T17:20:08;97359.00;;;13.00
15062;BMP180;7630;50.306;8.566;2023-11-19T17:24:09;97371.00;;;12.20
15062;BMP180;7630;50.306;8.566;2023-11-19T17:28:10;97356.00;;;13.20
15062;BMP180;7630;50.306;8.566;2023-11-19T17:32:12;97352.00;;;13.50
15062;BMP180;7630;50.306;8.566;2023-11-19T17:36:13;97351.00;;;13.10
15062;BMP180;7630;50.306;8.566;2023-11-19T17:40:14;97362.00;;;12.80
15062;BMP180;7630;50.306;8.566;2023-11-19T17:44:17;97346.00;;;12.70
15062;BMP180;7630;50.306;8.566;2023-11-19T17:48:19;97346.00;;;13.70
15062;BMP180;7630;50.306;8.566;2023-11-19T17:52:20;97353.00;;;13.10
15062;BMP180;7630;50.306;8.566;2023-11-19T17:56:21;97359.00;;;13.20
15062;BMP180;7630;50.306;8.566;2023-11-19T18:00:22;97358.00;;;12.90
15062;BMP180;7630;50.306;8.566;2023-11-19T18:04:24;97361.00;;;12.80
15062;BMP180;7630;50.306;8.566;2023-11-19T18:08:28;97371.00;;;13.30
15062;BMP180;7630;50.306;8.566;2023-11-19T18:12:29;97370.00;;;13.10
15062;BMP180;7630;50.306;8.566;2023-11-19T18:16:30;97362.00;;;12.70
15062;BMP180;7630;50.306;8.566;2023-11-19T18:20:32;97354.00;;;12.40
15062;BMP180;7630;50.306;8.566;2023-11-19T18:24:33;97359.00;;;12.70
15062;BMP180;7630;50.306;8.566;2023-11-19T18:28:36;97332.00;;;12.90
15062;BMP180;7630;50.306;8.566;2023-11-19T18:32:38;97353.00;;;13.40
15062;BMP180;7630;50.306;8.566;2023-11-19T18:36:39;97357.00;;;13.00
15062;BMP180;7630;50.306;8.566;2023-11-19T18:40:41;97363.00;;;13.20
15062;BMP180;7630;50.306;8.566;2023-11-19T18:44:42;97366.00;;;12.80
15062;BMP180;7630;50.306;8.566;2023-11-19T18:48:43;97356.00;;;12.20
15062;BMP180;7630;50.306;8.566;2023-11-19T18:52:44;97357.00;;;13.00
15062;BMP180;7630;50.306;8.566;2023-11-19T18:56:45;97366.00;;;13.50
15062;BMP180;7630;50.306;8.566;2023-11-19T19:00:46;97377.00;;;12.90
15062;BMP180;7630;50.306;8.566;2023-11-19T19:04:47;97351.00;;;13.30
15062;BMP180;7630;50.306;8.566;2023-11-19T19:08:48;97381.00;;;13.10
15062;BMP180;7630;50.306;8.566;2023-11-19T19:12:51;97374.00;;;13.10
15062;BMP180;7630;50.306;8.566;2023-11-19T19:16:52;97376.00;;;12.50
15062;BMP180;7630;50.306;8.566;2023-11-19T19:20:54;97366.00;;;13.20
15062;BMP180;7630;50.306;8.566;2023-11-19T19:24:55;97349.00;;;12.40
15062;BMP180;7630;50.306;8.566;2023-11-19T19:28:57;97382.00;;;12.30
15062;BMP180;7630;50.306;8.566;2023-11-19T19:32:59;97359.00;;;12.60
15062;BMP180;7630;50.306;8.566;2023-11-19T19:37:00;97366.00;;;12.70
15062;BMP180;7630;50.306;8.566;2023-11-19T19:41:02;97368.00;;;12.50
15062;BMP180;7630;50.306;8.566;2023-11-19T19:45:08;97392.00;;;12.50
15062;BMP180;7630;50.306;8.566;2023-11-19T19:49:10;97378.00;;;13.40
15062;BMP180;7630;50.306;8.566;2023-11-19T19:53:11;97370.00;;;12.90
15062;BMP180;7630;50.306;8.566;2023-11-19T19:57:12;97363.00;;;13.30
15062;BMP180;7630;50.306;8.566;2023-11-19T20:01:13;97358.00;;;12.90
15062;BMP180;7630;50.306;8.566;2023-11-19T20:05:14;97360.00;;;13.40
15062;BMP180;7630;50.306;8.566;2023-11-19T20:09:16;97361.00;;;12.90
15062;BMP180;7630;50.306;8.566;2023-11-19T20:13:17;97360.00;;;12.70
15062;BMP180;7630;50.306;8.566;2023-11-19T20:17:18;97363.00;;;12.80
15062;BMP180;7630;50.306;8.566;2023-11-19T20:21:20;97366.00;;;12.80
15062;BMP180;7630;50.306;8.566;2023-11-19T20:25:21;97364.00;;;13.20
15062;BMP180;7630;50.306;8.566;2023-11-19T20:29:23;97373.00;;;13.30
15062;BMP180;7630;50.306;8.566;2023-11-19T20:33:26;97354.00;;;13.20
15062;BMP180;7630;50.306;8.566;2023-11-19T20:37:27;97357.00;;;13.80
15062;BMP180;7630;50.306;8.566;2023-11-19T20:41:30;97365.00;;;12.80
15062;BMP180;7630;50.306;8.566;2023-11-19T20:45:31;97348.00;;;13.00
15062;BMP180;7630;50.306;8.566;2023-11-19T20:49:33;97344.00;;;12.70
15062;BMP180;7630;50.306;8.566;2023-11-19T20:53:34;97348.00;;;13.10
15062;BMP180;7630;50.306;8.566;2023-11-19T20:57:35;97357.00;;;12.20
15062;BMP180;7630;50.306;8.566;2023-11-19T21:01:36;97349.00;;;13.20
15062;BMP180;7630;50.306;8.566;2023-11-19T21:05:37;97336.00;;;12.60
15062;BMP180;7630;50.306;8.566;2023-11-19T21:09:39;97346.00;;;12.90
15062;BMP180;7630;50.306;8.566;2023-11-19T21:13:41;97343.00;;;13.10
15062;BMP180;7630;50.306;8.566;2023-11-19T21:17:42;97351.00;;;12.70
15062;BMP180;7630;50.306;8.566;2023-11-19T21:21:43;97331.00;;;12.70
15062;BMP180;7630;50.306;8.566;2023-11-19T21:25:45;97325.00;;;13.00
15062;BMP180;7630;50.306;8.566;2023-11-19T21:29:46;97341.00;;;13.00
15062;BMP180;7630;50.306;8.566;2023-11-19T21:33:47;97342.00;;;13.10
15062;BMP180;7630;50.306;8.566;2023-11-19T21:37:49;97341.00;;;12.80
15062;BMP180;7630;50.306;8.566;2023-11-19T21:41:50;97372.00;;;12.70
15062;BMP180;7630;50.306;8.566;2023-11-19T21:45:53;97332.00;;;12.60
15062;BMP180;7630;50.306;8.566;2023-11-19T21:49:55;97337.00;;;12.50
15062;BMP180;7630;50.306;8.566;2023-11-19T21:53:56;97344.00;;;12.30
15062;BMP180;7630;50.306;8.566;2023-11-19T21:57:57;97318.00;;;12.80
15062;BMP180;7630;50.306;8.566;2023-11-19T22:01:59;97321.00;;;13.00
15062;BMP180;7630;50.306;8.566;2023-11-19T22:06:00;97346.00;;;12.50
15062;BMP180;7630;50.306;8.566;2023-11-19T22:10:01;97334.00;;;12.70
15062;BMP180;7630;50.306;8.566;2023-11-19T22:14:05;97332.00;;;12.70
15062;BMP180;7630;50.306;8.566;2023-11-19T22:18:06;97332.00;;;12.80
15062;BMP180;7630;50.306;8.566;2023-11-19T22:22:07;97332.00;;;12.30
15062;BMP180;7630;50.306;8.566;2023-11-19T22:26:09;97343.00;;;13.10
15062;BMP180;7630;50.306;8.566;2023-11-19T22:30:10;97348.00;;;12.70
15062;BMP180;7630;50.306;8.566;2023-11-19T22:34:12;97345.00;;;13.20
15062;BMP180;7630;50.306;8.566;2023-11-19T22:38:13;97334.00;;;13.20
15062;BMP180;7630;50.306;8.566;2023-11-19T22:42:15;97326.00;;;13.00
15062;BMP180;7630;50.306;8.566;2023-11-19T22:46:16;97332.00;;;13.10
15062;BMP180;7630;50.306;8.566;2023-11-19T22:50:19;97319.00;;;12.60
15062;BMP180;7630;50.306;8.566;2023-11-19T22:54:20;97321.00;;;12.70
15062;BMP180;7630;50.306;8.566;2023-11-19T22:58:22;97324.00;;;12.60
15062;BMP180;7630;50.306;8.566;2023-11-19T23:02:23;97325.00;;;13.10
15062;BMP180;7630;50.306;8.566;2023-11-19T23:06:24;97334.00;;;13.20
15062;BMP180;7630;50.306;8.566;2023-11-19T23:10:26;97332.00;;;13.20
15062;BMP180;7630;50.306;8.566;2023-11-19T23:14:27;97330.00;;;12.80
15062;BMP180;7630;50.306;8.566;2023-11-19T23:18:28;97341.00;;;12.50
15062;BMP180;7630;50.306;8.566;2023-11-19T23:22:29;97341.00;;;12.80
15062;BMP180;7630;50.306;8.566;2023-11-19T23:26:32;97344.00;;;12.50
15062;BMP180;7630;50.306;8.566;2023-11-19T23:30:33;97336.00;;;12.90
15062;BMP180;7630;50.306;8.566;2023-11-19T23:34:34;97349.00;;;12.70
15062;BMP180;7630;50.306;8.566;2023-11-19T23:38:39;97333.00;;;11.90
15062;BMP180;7630;50.306;8.566;2023-11-19T23:42:40;97335.00;;;12.60
15062;BMP180;7630;50.306;8.566;2023-11-19T23:46:42;97337.00;;;12.00
15062;BMP180;7630;50.306;8.566;2023-11-19T23:50:44;97342.00;;;12.80
15062;BMP180;7630;50.306;8.566;2023-11-19T23:54:47;97341.00;;;12.30